createdAt,value
2018-07-15T00:00:37.758Z,23.50
2018-07-15T00:03:07.349Z,23.50
2018-07-15T00:05:36.958Z,23.50
2018-07-15T00:08:06.555Z,23.40
2018-07-15T00:10:44.741Z,23.40
2018-07-15T00:13:15.097Z,23.40
2018-07-15T00:15:45.308Z,23.40
2018-07-15T00:18:15.059Z,23.30
2018-07-15T00:20:44.612Z,23.30
2018-07-15T00:23:14.212Z,23.30
2018-07-15T00:25:43.775Z,23.30
2018-07-15T00:28:13.363Z,23.30
2018-07-15T00:30:42.969Z,23.30
2018-07-15T00:33:12.539Z,23.30
2018-07-15T00:35:42.084Z,23.30
2018-07-15T00:38:11.679Z,23.30
2018-07-15T00:40:41.239Z,23.30
2018-07-15T00:43:10.819Z,23.30
2018-07-15T00:45:40.372Z,23.30
2018-07-15T00:48:09.997Z,23.30
2018-07-15T00:50:39.542Z,23.30
2018-07-15T00:53:09.148Z,23.30
2018-07-15T00:55:38.689Z,23.30
2018-07-15T00:58:08.234Z,23.30
2018-07-15T01:00:42.853Z,23.30
2018-07-15T01:03:12.416Z,23.30
2018-07-15T01:05:42.032Z,23.30
2018-07-15T01:08:11.605Z,23.30
2018-07-15T01:10:41.221Z,23.30
2018-07-15T01:13:10.847Z,23.30
2018-07-15T01:15:40.421Z,23.30
2018-07-15T01:18:10.027Z,23.30
2018-07-15T01:20:39.626Z,23.30
2018-07-15T01:23:09.218Z,23.20
2018-07-15T01:25:38.752Z,23.20
2018-07-15T01:28:08.338Z,23.20
2018-07-15T01:30:37.931Z,23.20
2018-07-15T01:33:07.915Z,23.20
2018-07-15T01:35:37.471Z,23.20
2018-07-15T01:38:07.191Z,23.20
2018-07-15T01:40:36.759Z,23.20
2018-07-15T01:43:06.822Z,23.20
2018-07-15T01:45:36.432Z,23.20
2018-07-15T01:48:06.087Z,23.10
2018-07-15T01:53:04.578Z,23.10
2018-07-15T01:55:34.124Z,23.10
2018-07-15T01:58:03.713Z,23.10
2018-07-15T02:00:33.300Z,23.20
2018-07-15T02:03:02.923Z,23.20
2018-07-15T02:05:32.497Z,23.10
2018-07-15T02:08:02.084Z,23.20
2018-07-15T02:10:31.689Z,23.10
2018-07-15T02:13:01.268Z,23.10
2018-07-15T02:15:30.844Z,23.10
2018-07-15T02:18:00.408Z,23.10
2018-07-15T02:20:29.952Z,23.10
2018-07-15T02:22:59.538Z,23.10
2018-07-15T02:25:29.079Z,23.10
2018-07-15T02:27:58.667Z,23.10
2018-07-15T02:30:28.247Z,23.10
2018-07-15T02:32:57.798Z,23.10
2018-07-15T02:35:27.355Z,23.10
2018-07-15T02:37:56.913Z,23.10
2018-07-15T02:40:26.587Z,23.10
2018-07-15T02:42:56.149Z,23.10
2018-07-15T02:45:25.742Z,23.00
2018-07-15T02:47:55.317Z,23.00
2018-07-15T02:50:24.911Z,23.00
2018-07-15T02:52:54.514Z,23.00
2018-07-15T02:55:24.101Z,23.00
2018-07-15T02:57:53.679Z,23.00
2018-07-15T03:00:23.441Z,22.90
2018-07-15T03:02:53.031Z,22.90
2018-07-15T03:05:22.544Z,22.90
2018-07-15T03:07:52.239Z,22.90
2018-07-15T03:10:21.855Z,22.90
2018-07-15T03:12:51.608Z,22.90
2018-07-15T03:15:21.192Z,22.90
2018-07-15T03:17:50.714Z,22.90
2018-07-15T03:20:20.310Z,22.90
2018-07-15T03:22:49.862Z,22.90
2018-07-15T03:25:19.433Z,22.90
2018-07-15T03:27:48.992Z,22.90
2018-07-15T03:30:18.618Z,22.90
2018-07-15T03:32:48.246Z,22.90
2018-07-15T03:35:17.839Z,22.90
2018-07-15T03:37:47.418Z,23.00
2018-07-15T03:40:16.962Z,22.90
2018-07-15T03:42:46.638Z,22.90
2018-07-15T03:45:16.239Z,22.90
2018-07-15T03:47:45.794Z,22.90
2018-07-15T03:50:15.392Z,22.90
2018-07-15T03:52:44.934Z,22.90
2018-07-15T03:55:14.478Z,22.90
2018-07-15T03:57:44.175Z,22.90
2018-07-15T04:00:13.831Z,22.90
2018-07-15T04:02:43.400Z,22.90
2018-07-15T04:05:12.982Z,22.90
2018-07-15T04:07:42.579Z,22.90
2018-07-15T04:10:12.127Z,22.90
2018-07-15T04:12:41.692Z,22.90
2018-07-15T04:15:11.244Z,22.90
2018-07-15T04:17:40.806Z,22.80
2018-07-15T04:20:10.416Z,22.90
2018-07-15T04:22:40.067Z,22.90
2018-07-15T04:27:38.622Z,22.80
2018-07-15T04:30:08.274Z,22.90
2018-07-15T04:32:37.865Z,22.90
2018-07-15T04:35:07.444Z,22.80
2018-07-15T04:37:36.988Z,22.90
2018-07-15T04:40:06.574Z,22.90
2018-07-15T04:42:36.116Z,23.00
2018-07-15T04:45:05.735Z,23.00
2018-07-15T04:47:35.487Z,23.00
2018-07-15T04:50:05.252Z,23.10
2018-07-15T04:52:35.115Z,23.10
2018-07-15T04:55:04.715Z,23.10
2018-07-15T04:57:34.263Z,23.10
2018-07-15T05:00:03.857Z,23.20
2018-07-15T05:02:33.396Z,23.20
2018-07-15T05:05:03.149Z,23.30
2018-07-15T05:07:32.761Z,23.40
2018-07-15T05:10:02.338Z,23.40
2018-07-15T05:12:31.907Z,23.40
2018-07-15T05:15:01.529Z,23.50
2018-07-15T05:17:31.063Z,23.50
2018-07-15T05:20:00.623Z,23.60
2018-07-15T05:22:30.173Z,23.70
2018-07-15T05:24:59.743Z,23.70
2018-07-15T05:27:29.306Z,23.80
2018-07-15T05:29:58.881Z,23.90
2018-07-15T05:32:28.428Z,23.90
2018-07-15T05:34:58.049Z,24.00
2018-07-15T05:37:27.596Z,24.10
2018-07-15T05:39:57.143Z,24.20
2018-07-15T05:42:26.690Z,24.20
2018-07-15T05:44:56.257Z,24.30
2018-07-15T05:47:25.827Z,24.40
2018-07-15T05:49:55.442Z,24.50
2018-07-15T05:52:25.020Z,24.50
2018-07-15T05:54:54.600Z,24.60
2018-07-15T05:57:24.165Z,24.70
2018-07-15T05:59:53.742Z,24.70
2018-07-15T06:02:23.336Z,24.90
2018-07-15T06:04:52.906Z,25.00
2018-07-15T06:07:22.484Z,25.00
2018-07-15T06:09:52.094Z,25.10
2018-07-15T06:12:21.707Z,25.20
2018-07-15T06:14:51.308Z,25.20
2018-07-15T06:17:20.857Z,25.30
2018-07-15T06:19:50.394Z,25.40
2018-07-15T06:22:19.983Z,25.40
2018-07-15T06:24:49.514Z,25.40
2018-07-15T06:27:19.088Z,25.60
2018-07-15T06:29:48.692Z,25.60
2018-07-15T06:32:18.239Z,25.70
2018-07-15T06:34:47.833Z,25.80
2018-07-15T06:37:17.391Z,25.90
2018-07-15T06:39:46.941Z,25.90
2018-07-15T06:42:16.563Z,26.00
2018-07-15T06:44:46.133Z,26.10
2018-07-15T06:47:15.684Z,26.20
2018-07-15T06:49:45.271Z,26.10
2018-07-15T06:52:14.824Z,26.20
2018-07-15T06:54:44.428Z,26.20
2018-07-15T06:57:14.035Z,26.30
2018-07-15T06:59:43.662Z,26.40
2018-07-15T07:02:13.236Z,26.50
2018-07-15T07:04:42.989Z,26.60
2018-07-15T07:07:12.579Z,26.60
2018-07-15T07:09:42.115Z,26.60
2018-07-15T07:12:11.678Z,26.70
2018-07-15T07:14:41.239Z,26.80
2018-07-15T07:17:10.890Z,26.90
2018-07-15T07:19:40.478Z,26.90
2018-07-15T07:22:10.052Z,26.90
2018-07-15T07:24:39.606Z,27.00
2018-07-15T07:27:09.214Z,27.10
2018-07-15T07:29:38.757Z,27.20
2018-07-15T07:32:08.516Z,27.30
2018-07-15T07:34:38.115Z,27.30
2018-07-15T07:37:07.731Z,27.30
2018-07-15T07:39:37.382Z,27.30
2018-07-15T07:42:07.203Z,27.40
2018-07-15T07:44:36.827Z,27.60
2018-07-15T07:47:06.441Z,27.70
2018-07-15T07:49:36.076Z,27.70
2018-07-15T07:52:05.741Z,27.90
2018-07-15T07:54:35.362Z,28.00
2018-07-15T07:57:05.090Z,28.10
2018-07-15T07:59:35.038Z,28.20
2018-07-15T08:02:04.893Z,28.30
2018-07-15T08:04:34.482Z,28.40
2018-07-15T08:07:04.134Z,28.50
2018-07-15T08:09:33.785Z,28.50
2018-07-15T08:12:03.376Z,28.50
2018-07-15T08:14:33.143Z,28.60
2018-07-15T08:17:02.804Z,28.70
2018-07-15T08:19:32.368Z,28.80
2018-07-15T08:22:02.106Z,28.90
2018-07-15T08:24:31.657Z,29.00
2018-07-15T08:27:01.225Z,29.00
2018-07-15T08:29:30.806Z,29.10
2018-07-15T08:32:00.335Z,29.20
2018-07-15T08:34:29.930Z,29.30
2018-07-15T08:36:59.606Z,29.50
2018-07-15T08:39:29.213Z,29.60
2018-07-15T08:41:58.817Z,29.70
2018-07-15T08:44:28.408Z,29.80
2018-07-15T08:46:58.019Z,29.90
2018-07-15T08:49:27.580Z,30.00
2018-07-15T08:51:57.146Z,30.10
2018-07-15T08:54:26.685Z,30.20
2018-07-15T08:56:56.235Z,30.40
2018-07-15T08:59:25.800Z,30.40
2018-07-15T09:01:55.346Z,30.50
2018-07-15T09:04:24.942Z,30.50
2018-07-15T09:06:54.628Z,30.50
2018-07-15T09:09:24.193Z,30.50
2018-07-15T09:11:53.780Z,30.40
2018-07-15T09:14:23.433Z,30.50
2018-07-15T09:16:53.379Z,30.60
2018-07-15T09:21:51.982Z,30.90
2018-07-15T09:24:21.539Z,31.00
2018-07-15T09:26:51.117Z,31.10
2018-07-15T09:29:20.694Z,31.20
2018-07-15T09:31:50.299Z,31.40
2018-07-15T09:34:19.852Z,31.50
2018-07-15T09:36:49.409Z,31.70
2018-07-15T09:39:18.987Z,31.80
2018-07-15T09:41:48.519Z,32.00
2018-07-15T09:44:18.061Z,32.10
2018-07-15T09:46:47.911Z,32.30
2018-07-15T09:49:17.819Z,32.50
2018-07-15T09:51:47.419Z,32.60
2018-07-15T09:54:17.120Z,32.60
2018-07-15T09:56:46.795Z,32.70
2018-07-15T09:59:16.402Z,32.80
2018-07-15T10:04:15.096Z,33.00
2018-07-15T10:06:44.705Z,33.10
2018-07-15T10:11:43.372Z,33.30
2018-07-15T10:14:12.999Z,33.30
2018-07-15T10:16:42.580Z,33.40
2018-07-15T10:19:12.159Z,33.60
2018-07-15T10:21:42.109Z,33.70
2018-07-15T10:24:11.626Z,33.80
2018-07-15T10:26:41.357Z,33.70
2018-07-15T10:29:11.155Z,33.70
2018-07-15T10:31:40.744Z,33.70
2018-07-15T10:34:10.384Z,33.90
2018-07-15T10:36:39.956Z,34.00
2018-07-15T10:39:09.567Z,34.20
2018-07-15T10:41:39.161Z,34.40
2018-07-15T10:44:08.728Z,34.50
2018-07-15T10:46:38.520Z,34.70
2018-07-15T10:49:08.110Z,34.90
2018-07-15T10:51:37.738Z,35.00
2018-07-15T10:54:07.491Z,35.10
2018-07-15T10:56:37.044Z,35.10
2018-07-15T10:59:06.743Z,35.20
2018-07-15T11:01:36.296Z,35.20
2018-07-15T11:04:05.913Z,35.40
2018-07-15T11:06:35.639Z,35.60
2018-07-15T11:09:06.266Z,35.70
2018-07-15T11:11:35.824Z,35.90
2018-07-15T11:16:34.515Z,36.00
2018-07-15T11:19:04.178Z,36.10
2018-07-15T11:21:33.764Z,36.20
2018-07-15T11:24:03.373Z,36.40
2018-07-15T11:26:33.023Z,36.50
2018-07-15T11:29:02.584Z,36.50
2018-07-15T11:31:32.141Z,36.50
2018-07-15T11:34:01.754Z,36.60
2018-07-15T11:36:31.332Z,36.70
2018-07-15T11:39:01.002Z,36.90
2018-07-15T11:41:30.652Z,36.90
2018-07-15T11:46:30.560Z,37.10
2018-07-15T11:49:00.358Z,37.20
2018-07-15T11:51:30.050Z,37.20
2018-07-15T11:53:59.567Z,37.20
2018-07-15T11:56:29.152Z,37.10
2018-07-15T11:58:58.804Z,37.20
2018-07-15T12:01:28.485Z,37.20
2018-07-15T12:03:58.041Z,37.30
2018-07-15T12:06:27.610Z,37.40
2018-07-15T12:08:57.193Z,37.60
2018-07-15T12:11:26.802Z,37.60
2018-07-15T12:13:56.378Z,37.70
2018-07-15T12:16:25.907Z,37.80
2018-07-15T12:18:55.607Z,37.90
2018-07-15T12:21:25.176Z,37.90
2018-07-15T12:23:54.719Z,37.90
2018-07-15T12:26:24.313Z,38.00
2018-07-15T12:28:53.875Z,38.00
2018-07-15T12:31:23.435Z,37.80
2018-07-15T12:33:53.047Z,37.50
2018-07-15T12:36:22.897Z,37.40
2018-07-15T12:41:21.372Z,37.40
2018-07-15T12:48:49.201Z,37.20
2018-07-15T12:51:18.862Z,37.20
2018-07-15T12:53:48.488Z,37.10
2018-07-15T12:56:18.088Z,37.10
2018-07-15T12:58:47.658Z,37.00
2018-07-15T13:01:17.265Z,37.00
2018-07-15T13:03:46.889Z,36.80
2018-07-15T13:06:16.520Z,36.70
2018-07-15T13:08:46.118Z,36.50
2018-07-15T13:11:15.692Z,36.40
2018-07-15T13:13:45.317Z,36.20
2018-07-15T13:16:14.939Z,36.10
2018-07-15T13:18:50.847Z,36.00
2018-07-15T13:21:20.431Z,35.90
2018-07-15T13:23:50.048Z,35.60
2018-07-15T13:26:19.678Z,35.50
2018-07-15T13:28:49.380Z,35.40
2018-07-15T13:31:19.230Z,35.20
2018-07-15T13:33:48.841Z,35.10
2018-07-15T13:36:18.396Z,35.10
2018-07-15T13:38:48.154Z,35.00
2018-07-15T13:41:17.736Z,34.90
2018-07-15T13:43:47.259Z,34.80
2018-07-15T13:46:16.856Z,34.80
2018-07-15T13:48:46.430Z,34.70
2018-07-15T13:51:16.074Z,34.70
2018-07-15T13:53:45.603Z,34.70
2018-07-15T13:56:15.182Z,34.60
2018-07-15T13:58:44.723Z,34.50
2018-07-15T14:01:14.317Z,34.40
2018-07-15T14:03:43.838Z,34.40
2018-07-15T14:06:13.527Z,34.30
2018-07-15T14:08:43.112Z,34.20
2018-07-15T14:11:12.680Z,34.10
2018-07-15T14:13:42.264Z,34.00
2018-07-15T14:16:11.829Z,33.90
2018-07-15T14:18:41.404Z,33.70
2018-07-15T14:23:40.023Z,33.50
2018-07-15T14:26:09.633Z,33.40
2018-07-15T14:28:39.214Z,33.30
2018-07-15T14:33:38.083Z,33.00
2018-07-15T14:36:07.756Z,33.00
2018-07-15T14:38:37.590Z,32.90
2018-07-15T14:41:07.425Z,32.80
2018-07-15T14:43:37.543Z,32.70
2018-07-15T14:46:07.323Z,32.60
2018-07-15T14:48:36.947Z,32.50
2018-07-15T14:51:06.627Z,32.40
2018-07-15T14:53:36.219Z,32.10
2018-07-15T14:56:06.047Z,31.70
2018-07-15T14:58:35.706Z,31.40
2018-07-15T15:01:05.868Z,31.20
2018-07-15T15:03:35.901Z,31.00
2018-07-15T15:06:06.389Z,30.80
2018-07-15T15:08:36.729Z,30.70
2018-07-15T15:11:06.843Z,30.70
2018-07-15T15:13:37.039Z,30.60
2018-07-15T15:16:07.175Z,30.60
2018-07-15T15:18:37.557Z,30.60
2018-07-15T15:21:08.304Z,30.60
2018-07-15T15:23:38.737Z,30.70
2018-07-15T15:26:09.092Z,30.70
2018-07-15T15:28:39.480Z,30.60
2018-07-15T15:31:09.851Z,30.60
2018-07-15T15:33:39.792Z,30.60
2018-07-15T15:36:09.910Z,30.60
2018-07-15T15:38:39.880Z,30.50
2018-07-15T15:41:10.175Z,30.40
2018-07-15T15:43:40.589Z,30.30
2018-07-15T15:46:10.941Z,30.10
2018-07-15T15:48:41.283Z,30.00
2018-07-15T15:51:11.149Z,29.90
2018-07-15T15:53:41.419Z,29.80
2018-07-15T15:56:11.551Z,29.70
2018-07-15T15:58:41.634Z,29.50
2018-07-15T16:01:11.481Z,29.40
2018-07-15T16:03:41.712Z,29.30
2018-07-15T16:06:12.054Z,29.20
2018-07-15T16:08:42.309Z,29.20
2018-07-15T16:11:12.613Z,29.10
2018-07-15T16:13:42.865Z,29.10
2018-07-15T16:16:13.261Z,29.10
2018-07-15T16:18:43.630Z,29.10
2018-07-15T16:21:14.010Z,29.10
2018-07-15T16:23:44.803Z,29.10
2018-07-15T16:26:15.162Z,29.10
2018-07-15T16:28:45.374Z,29.20
2018-07-15T16:31:15.696Z,29.20
2018-07-15T16:33:45.847Z,29.20
2018-07-15T16:36:16.150Z,29.20
2018-07-15T16:38:46.547Z,29.10
2018-07-15T16:41:16.733Z,29.10
2018-07-15T16:43:46.967Z,29.00
2018-07-15T16:46:17.249Z,29.00
2018-07-15T16:48:47.296Z,29.00
2018-07-15T16:51:17.079Z,28.90
2018-07-15T16:53:47.363Z,28.80
2018-07-15T16:56:17.771Z,28.80
2018-07-15T16:58:47.646Z,28.70
2018-07-15T17:01:17.375Z,28.60
2018-07-15T17:03:46.986Z,28.40
2018-07-15T17:06:16.615Z,28.40
2018-07-15T17:08:46.211Z,28.30
2018-07-15T17:11:16.014Z,28.20
2018-07-15T17:13:45.676Z,28.10
2018-07-15T17:16:15.282Z,28.10
2018-07-15T17:18:44.924Z,28.00
2018-07-15T17:21:14.493Z,28.00
2018-07-15T17:23:44.104Z,27.90
2018-07-15T17:26:13.903Z,27.80
2018-07-15T17:28:43.538Z,27.80
2018-07-15T17:31:13.281Z,27.70
2018-07-15T17:33:43.597Z,27.60
2018-07-15T17:36:13.354Z,27.60
2018-07-15T17:41:12.037Z,27.40
2018-07-15T17:43:41.799Z,27.40
2018-07-15T17:46:11.440Z,27.30
2018-07-15T17:48:41.229Z,27.30
2018-07-15T17:51:10.935Z,27.30
2018-07-15T17:53:40.773Z,27.20
2018-07-15T17:56:10.439Z,27.20
2018-07-15T17:58:40.496Z,27.20
2018-07-15T18:01:10.339Z,27.10
2018-07-15T18:03:40.169Z,27.10
2018-07-15T18:06:10.060Z,27.10
2018-07-15T18:08:39.959Z,27.00
2018-07-15T18:11:10.022Z,27.00
2018-07-15T18:13:39.883Z,26.90
2018-07-15T18:16:09.641Z,26.90
2018-07-15T18:18:39.659Z,26.90
2018-07-15T18:21:09.618Z,26.90
2018-07-15T18:23:39.577Z,26.90
2018-07-15T18:26:09.447Z,26.90
2018-07-15T18:28:39.485Z,26.90
2018-07-15T18:31:09.633Z,26.80
2018-07-15T18:36:10.592Z,26.80
2018-07-15T18:38:41.267Z,26.70
2018-07-15T18:41:12.528Z,26.70
2018-07-15T18:43:43.414Z,26.60
2018-07-15T18:46:14.768Z,26.60
2018-07-15T18:48:46.162Z,26.60
2018-07-15T18:51:17.215Z,26.50
2018-07-15T18:53:47.511Z,26.50
2018-07-15T18:56:17.956Z,26.50
2018-07-15T18:58:48.298Z,26.50
2018-07-15T19:01:18.648Z,26.40
2018-07-15T19:03:49.013Z,26.30
2018-07-15T19:06:19.406Z,26.30
2018-07-15T19:08:49.756Z,26.30
2018-07-15T19:11:20.172Z,26.20
2018-07-15T19:13:50.509Z,26.20
2018-07-15T19:16:20.952Z,26.20
2018-07-15T19:18:51.385Z,26.20
2018-07-15T19:21:21.781Z,26.20
2018-07-15T19:23:52.207Z,26.20
2018-07-15T19:26:22.576Z,26.10
2018-07-15T19:28:52.962Z,26.10
2018-07-15T19:31:23.404Z,26.00
2018-07-15T19:33:53.905Z,26.00
2018-07-15T19:36:24.245Z,25.90
2018-07-15T19:38:54.722Z,25.90
2018-07-15T19:41:25.215Z,25.90
2018-07-15T19:43:55.504Z,25.80
2018-07-15T19:46:25.883Z,25.80
2018-07-15T19:48:56.264Z,25.80
2018-07-15T19:51:26.642Z,25.70
2018-07-15T19:53:56.976Z,25.70
2018-07-15T19:56:27.351Z,25.60
2018-07-15T19:58:57.725Z,25.60
2018-07-15T20:03:57.643Z,25.50
2018-07-15T20:06:28.605Z,25.60
2018-07-15T20:08:58.951Z,25.50
2018-07-15T20:11:30.314Z,25.50
2018-07-15T20:14:00.692Z,25.50
2018-07-15T20:16:31.079Z,25.40
2018-07-15T20:19:01.419Z,25.40
2018-07-15T20:21:31.724Z,25.40
2018-07-15T20:24:02.096Z,25.40
2018-07-15T20:26:32.403Z,25.40
2018-07-15T20:29:03.608Z,25.40
2018-07-15T20:31:33.976Z,25.30
2018-07-15T20:34:04.390Z,25.30
2018-07-15T20:36:34.813Z,25.30
2018-07-15T20:39:05.560Z,25.30
2018-07-15T20:41:35.921Z,25.30
2018-07-15T20:44:06.267Z,25.20
2018-07-15T20:46:36.634Z,25.20
2018-07-15T20:49:06.792Z,25.20
2018-07-15T20:51:36.953Z,25.10
2018-07-15T20:54:07.056Z,25.10
2018-07-15T20:56:37.043Z,25.10
2018-07-15T20:59:07.016Z,25.10
2018-07-15T21:01:37.092Z,25.00
2018-07-15T21:04:06.910Z,25.00
2018-07-15T21:06:36.999Z,25.00
2018-07-15T21:09:07.573Z,25.00
2018-07-15T21:11:37.238Z,25.00
2018-07-15T21:14:06.815Z,25.00
2018-07-15T21:16:36.681Z,25.00
2018-07-15T21:19:06.601Z,25.00
2018-07-15T21:21:36.150Z,25.00
2018-07-15T21:24:05.710Z,25.00
2018-07-15T21:26:35.334Z,24.90
2018-07-15T21:29:04.951Z,24.90
2018-07-15T21:31:34.552Z,24.90
2018-07-15T21:34:04.180Z,24.80
2018-07-15T21:36:33.733Z,24.80
2018-07-15T21:39:03.431Z,24.80
2018-07-15T21:41:33.057Z,24.80
2018-07-15T21:44:02.697Z,24.80
2018-07-15T21:46:32.237Z,24.70
2018-07-15T21:49:01.897Z,24.70
2018-07-15T21:51:31.778Z,24.80
2018-07-15T21:54:01.390Z,24.70
2018-07-15T21:56:31.024Z,24.70
2018-07-15T21:59:00.604Z,24.70
2018-07-15T22:01:39.380Z,24.70
2018-07-15T22:04:09.744Z,24.70
2018-07-15T22:06:50.199Z,24.70
2018-07-15T22:09:30.884Z,24.70
2018-07-15T22:12:00.980Z,24.70
2018-07-15T22:14:30.525Z,24.70
2018-07-15T22:17:00.069Z,24.60
2018-07-15T22:19:29.653Z,24.60
2018-07-15T22:21:59.250Z,24.60
2018-07-15T22:24:28.892Z,24.60
2018-07-15T22:26:58.495Z,24.60
2018-07-15T22:29:28.098Z,24.60
2018-07-15T22:31:57.715Z,24.60
2018-07-15T22:34:27.317Z,24.50
2018-07-15T22:36:56.942Z,24.50
2018-07-15T22:39:26.489Z,24.50
2018-07-15T22:41:56.076Z,24.50
2018-07-15T22:44:25.682Z,24.40
2018-07-15T22:46:55.358Z,24.40
2018-07-15T22:49:24.901Z,24.40
2018-07-15T22:51:54.544Z,24.30
2018-07-15T22:54:24.158Z,24.30
2018-07-15T22:56:53.751Z,24.30
2018-07-15T22:59:23.341Z,24.30
2018-07-15T23:01:52.958Z,24.30
2018-07-15T23:04:33.141Z,24.30
2018-07-15T23:07:02.715Z,24.30
2018-07-15T23:09:32.301Z,24.30
2018-07-15T23:12:01.878Z,24.30
2018-07-15T23:14:31.445Z,24.30
2018-07-15T23:17:01.029Z,24.20
2018-07-15T23:19:30.555Z,24.20
2018-07-15T23:22:00.133Z,24.20
2018-07-15T23:24:29.740Z,24.10
2018-07-15T23:26:59.286Z,24.10
2018-07-15T23:29:28.921Z,24.10
2018-07-15T23:31:58.468Z,24.10
2018-07-15T23:34:28.095Z,24.00
2018-07-15T23:36:57.689Z,24.00
2018-07-15T23:39:27.236Z,24.00
2018-07-15T23:41:56.840Z,24.00
2018-07-15T23:44:26.440Z,24.00
2018-07-15T23:46:56.073Z,24.00
2018-07-15T23:49:25.633Z,24.00
2018-07-15T23:51:55.287Z,24.00
2018-07-15T23:54:24.862Z,24.10
2018-07-15T23:56:54.503Z,24.10
2018-07-15T23:59:24.064Z,24.10
